Terminal Aerodrome Forecast
Issued by NWS Chicago, IL

Home | Current Version | Previous Version | Text Only | Print | Product List | Glossary Off
Versions: 1 2 3 4 5 6 7 8 9 10 11 12 13 14 15 16 17 18 19 20 21 22 23 24 25 26 27

052
FTUS43 KLOT 061459 AAA
TAFRFD
TAF AMD
KRFD 061459Z 0615/0712 22008KT 6SM BR OVC025
     FM061600 24009KT P6SM BKN020
     FM070000 22007KT P6SM BKN120
     FM070600 21010KT P6SM OVC070=

USA.gov is the U.S. government's official web portal to all federal, state and local government web resources and services.